Time;durP1;ratioP1;P1;durP2;ratioP2;P2;SDS_P1;SDS_P2;PMS_P1;PMS_P2;Temp;Humidity;BMP_temperature;BMP_pressure;BME280_temperature;BME280_humidity;BME280_pressure;Samples;Min_cycle;Max_cycle;Signal;HPM_P1;HPM_P2
2023/10/10 00:02:20;;;;;;;0.30;0.30;;;;;;;;;;5136575;27;20217;-89
2023/10/10 00:04:49;;;;;;;0.40;0.40;;;;;;;;;;5137046;27;20210;-88
2023/10/10 00:07:19;;;;;;;0.30;0.30;;;;;;;;;;5136536;27;20232;-89
2023/10/10 00:09:50;;;;;;;2.43;2.17;;;;;;;;;;5135788;27;20295;-90
2023/10/10 00:12:26;;;;;;;8.10;5.83;;;;;;;;;;5135455;27;20199;-89
2023/10/10 00:14:58;;;;;;;7.60;5.27;;;;;;;;;;5135970;27;20198;-89
2023/10/10 00:17:34;;;;;;;1.73;1.63;;;;;;;;;;5136165;27;20277;-89
2023/10/10 00:20:16;;;;;;;5.87;4.23;;;;;;;;;;5134916;27;20215;-89
2023/10/10 00:22:47;;;;;;;2.87;2.27;;;;;;;;;;5136020;27;20266;-90
2023/10/10 00:25:19;;;;;;;2.20;1.83;;;;;;;;;;5136699;27;20244;-89
2023/10/10 00:27:55;;;;;;;0.47;0.47;;;;;;;;;;5136981;27;20246;-88
2023/10/10 00:30:27;;;;;;;0.40;0.40;;;;;;;;;;5135894;27;20210;-89
2023/10/10 00:32:55;;;;;;;0.30;0.30;;;;;;;;;;5136012;27;20217;-89
2023/10/10 00:35:27;;;;;;;0.40;0.40;;;;;;;;;;5135616;27;20191;-89
2023/10/10 00:37:57;;;;;;;1.33;1.33;;;;;;;;;;5135606;27;20207;-89
2023/10/10 00:40:29;;;;;;;0.40;0.40;;;;;;;;;;5134921;27;20206;-89
2023/10/10 00:43:04;;;;;;;8.07;5.20;;;;;;;;;;5135487;27;20191;-89
2023/10/10 00:45:36;;;;;;;8.37;4.73;;;;;;;;;;5135835;27;20228;-89
2023/10/10 00:48:09;;;;;;;13.37;6.40;;;;;;;;;;5135542;27;20313;-89
2023/10/10 00:50:39;;;;;;;9.77;7.80;;;;;;;;;;5135731;27;20205;-88
2023/10/10 00:53:12;;;;;;;13.63;6.03;;;;;;;;;;5135857;27;20206;-89
2023/10/10 00:55:41;;;;;;;9.53;6.40;;;;;;;;;;5135725;27;20297;-89
2023/10/10 00:58:13;;;;;;;9.30;6.03;;;;;;;;;;5134273;27;20470;-88
2023/10/10 01:00:46;;;;;;;14.67;8.03;;;;;;;;;;5135503;27;20297;-88
2023/10/10 01:03:21;;;;;;;13.20;8.73;;;;;;;;;;5135689;27;20202;-89
2023/10/10 01:05:55;;;;;;;14.40;9.07;;;;;;;;;;5135317;27;20206;-89
2023/10/10 01:08:26;;;;;;;13.37;6.53;;;;;;;;;;5135141;27;20222;-89
2023/10/10 01:11:02;;;;;;;5.07;3.77;;;;;;;;;;5134976;27;20203;-88
2023/10/10 01:13:33;;;;;;;11.17;4.63;;;;;;;;;;5134914;27;20195;-88
2023/10/10 01:16:05;;;;;;;10.30;7.53;;;;;;;;;;5135634;27;20194;-88
2023/10/10 01:18:39;;;;;;;15.90;8.87;;;;;;;;;;5134778;27;20240;-89
2023/10/10 01:21:18;;;;;;;4.17;3.40;;;;;;;;;;5134511;27;20206;-88
2023/10/10 01:23:47;;;;;;;1.80;1.63;;;;;;;;;;5135151;27;20220;-89
2023/10/10 01:26:16;;;;;;;5.00;2.40;;;;;;;;;;5134804;27;20209;-88
2023/10/10 01:28:46;;;;;;;5.33;1.83;;;;;;;;;;5134247;27;20229;-89
2023/10/10 01:31:17;;;;;;;1.93;1.77;;;;;;;;;;5134005;27;20195;-89
2023/10/10 01:33:49;;;;;;;13.60;3.53;;;;;;;;;;5134331;27;20259;-88
2023/10/10 01:36:23;;;;;;;0.63;0.63;;;;;;;;;;5133900;27;20207;-88
2023/10/10 01:39:07;;;;;;;9.70;5.33;;;;;;;;;;5134719;27;20229;-89
2023/10/10 01:41:40;;;;;;;4.10;2.50;;;;;;;;;;5134547;27;20299;-88
2023/10/10 01:44:12;;;;;;;8.03;6.27;;;;;;;;;;5134573;27;20231;-88
2023/10/10 01:46:42;;;;;;;4.23;3.83;;;;;;;;;;5133643;27;20199;-88
2023/10/10 01:49:19;;;;;;;9.27;8.33;;;;;;;;;;5134339;27;20339;-88
2023/10/10 01:51:54;;;;;;;19.17;8.53;;;;;;;;;;5134391;27;20262;-89
2023/10/10 01:54:28;;;;;;;19.00;9.80;;;;;;;;;;5134161;27;20229;-88
2023/10/10 01:56:58;;;;;;;16.30;10.00;;;;;;;;;;5134074;27;20228;-88
2023/10/10 01:59:35;;;;;;;8.40;6.63;;;;;;;;;;5134534;27;20297;-88
2023/10/10 02:02:08;;;;;;;14.77;7.20;;;;;;;;;;5133909;27;20199;-89
2023/10/10 02:04:39;;;;;;;21.43;12.37;;;;;;;;;;5133507;27;20255;-89
2023/10/10 02:07:16;;;;;;;20.93;11.80;;;;;;;;;;5133304;27;20232;-89
2023/10/10 02:09:53;;;;;;;20.07;10.93;;;;;;;;;;5133836;27;20231;-88
2023/10/10 02:12:22;;;;;;;17.37;11.20;;;;;;;;;;5134155;27;20205;-88
2023/10/10 02:14:54;;;;;;;24.63;13.77;;;;;;;;;;5134169;27;20259;-88
2023/10/10 02:17:26;;;;;;;6.60;4.83;;;;;;;;;;5134062;27;20395;-88
2023/10/10 02:20:18;;;;;;;18.93;10.13;;;;;;;;;;5133974;27;20266;-89
2023/10/10 02:22:49;;;;;;;24.60;12.07;;;;;;;;;;5134293;27;20247;-89
2023/10/10 02:28:43;;;;;;;9.33;4.47;;;;;;;;;;5132525;27;1407278;-87
2023/10/10 02:31:15;;;;;;;20.33;11.33;;;;;;;;;;5150811;27;20577;-88
2023/10/10 02:34:02;;;;;;;24.40;13.47;;;;;;;;;;5151042;27;20202;-87
2023/10/10 02:36:31;;;;;;;32.47;16.63;;;;;;;;;;5151899;27;20220;-88
2023/10/10 02:39:18;;;;;;;21.40;12.43;;;;;;;;;;5151510;27;20202;-88
2023/10/10 02:41:51;;;;;;;29.73;13.60;;;;;;;;;;5151988;27;20235;-88
2023/10/10 02:44:38;;;;;;;27.57;17.60;;;;;;;;;;5151132;27;20241;-87
2023/10/10 02:47:08;;;;;;;32.43;17.23;;;;;;;;;;5151058;27;20218;-87
2023/10/10 02:49:38;;;;;;;32.90;18.27;;;;;;;;;;5151628;27;20234;-87
2023/10/10 02:52:14;;;;;;;25.93;15.77;;;;;;;;;;5151196;27;20203;-88
2023/10/10 02:54:53;;;;;;;30.30;13.73;;;;;;;;;;5150681;27;20189;-88
2023/10/10 02:57:29;;;;;;;32.47;13.00;;;;;;;;;;5151284;27;20468;-88
2023/10/10 03:00:15;;;;;;;27.03;15.23;;;;;;;;;;5151597;27;20319;-88
2023/10/10 03:02:49;;;;;;;28.63;15.63;;;;;;;;;;5151280;27;20201;-87
2023/10/10 03:05:37;;;;;;;8.53;5.13;;;;;;;;;;5151254;27;20225;-87
2023/10/10 03:08:14;;;;;;;24.17;13.07;;;;;;;;;;5151078;27;20225;-87
2023/10/10 03:10:46;;;;;;;5.13;3.43;;;;;;;;;;5150451;27;20245;-87
2023/10/10 03:13:31;;;;;;;6.40;3.97;;;;;;;;;;5150325;27;20206;-87
2023/10/10 03:19:13;;;;;;;16.53;9.17;;;;;;;;;;5143212;27;20222;-87
2023/10/10 03:21:50;;;;;;;12.13;8.83;;;;;;;;;;5129984;28;20199;-87
2023/10/10 03:24:50;;;;;;;31.77;16.00;;;;;;;;;;5130434;28;20202;-88
2023/10/10 03:27:49;;;;;;;41.27;19.80;;;;;;;;;;5130255;27;20219;-87
2023/10/10 03:30:22;;;;;;;24.20;10.87;;;;;;;;;;5131006;28;20207;-87
2023/10/10 03:33:08;;;;;;;45.43;20.93;;;;;;;;;;5129981;28;20203;-88
2023/10/10 03:35:59;;;;;;;47.90;22.90;;;;;;;;;;5129865;28;20209;-87
2023/10/10 05:23:29;;;;;;;40.43;19.73;;;;;;;;;;5101620;28;20207;-88
2023/10/10 05:24:51;;;;;;;108.03;52.63;;;;;;;;;;5113619;28;20211;-87
2023/10/10 05:27:29;;;;;;;98.13;46.73;;;;;;;;;;5113298;28;20219;-88
2023/10/10 05:30:00;;;;;;;76.80;40.13;;;;;;;;;;5113936;28;20293;-87
2023/10/10 05:32:32;;;;;;;77.07;37.17;;;;;;;;;;5113695;28;20334;-88
2023/10/10 05:35:01;;;;;;;101.67;51.77;;;;;;;;;;5113684;28;20209;-88
2023/10/10 05:37:33;;;;;;;93.73;47.50;;;;;;;;;;5114890;28;20202;-90
2023/10/10 05:40:02;;;;;;;94.43;49.67;;;;;;;;;;5114745;28;20207;-88
2023/10/10 05:42:34;;;;;;;76.17;40.03;;;;;;;;;;5114849;28;20202;-88
2023/10/10 05:45:08;;;;;;;52.37;27.63;;;;;;;;;;5115035;28;20191;-88
2023/10/10 05:47:37;;;;;;;83.10;43.83;;;;;;;;;;5114601;28;20230;-88
2023/10/10 05:50:10;;;;;;;48.63;27.23;;;;;;;;;;5116357;28;20272;-88
2023/10/10 05:52:39;;;;;;;87.63;46.80;;;;;;;;;;5115877;28;20203;-86
2023/10/10 05:56:23;;;;;;;;;;;;;;;;;;;;;
2023/10/10 05:59:13;;;;;;;76.17;50.83;;;;;;;;;;5107399;28;20298;-89
2023/10/10 06:05:33;;;;;;;59.70;37.00;;;;;;;;;;5111846;28;20206;-91
2023/10/10 06:11:39;;;;;;;59.17;34.07;;;;;;;;;;5065495;28;20214;-89
2023/10/10 06:52:27;;;;;;;53.83;34.30;;;;;;;;;;4972165;28;20239;-90
2023/10/10 06:54:57;;;;;;;53.67;32.73;;;;;;;;;;4974504;28;20203;-89
2023/10/10 07:00:20;;;;;;;26.57;17.43;;;;;;;;;;4973877;28;20226;-89
2023/10/10 07:02:52;;;;;;;51.07;32.60;;;;;;;;;;4974792;28;20294;-89
2023/10/10 07:05:26;;;;;;;54.20;33.30;;;;;;;;;;4975034;28;20363;-88
2023/10/10 07:08:12;;;;;;;49.13;32.47;;;;;;;;;;4975010;28;20287;-89
2023/10/10 07:10:42;;;;;;;39.00;20.33;;;;;;;;;;4973896;28;20196;-89
2023/10/10 07:13:13;;;;;;;41.30;26.33;;;;;;;;;;4975782;28;20219;-89
2023/10/10 07:15:50;;;;;;;34.43;25.20;;;;;;;;;;4978412;28;20205;-89
2023/10/10 07:18:23;;;;;;;43.10;29.47;;;;;;;;;;4978406;28;20238;-89
2023/10/10 07:21:04;;;;;;;6.73;5.07;;;;;;;;;;4977425;28;20196;-88
2023/10/10 07:24:13;;;;;;;10.00;4.80;;;;;;;;;;4978489;28;20207;-89
2023/10/10 07:26:58;;;;;;;38.00;22.57;;;;;;;;;;4976543;28;20215;-89
2023/10/10 07:29:26;;;;;;;37.73;17.73;;;;;;;;;;4977276;28;20276;-89
2023/10/10 07:32:04;;;;;;;23.80;17.70;;;;;;;;;;4977983;28;20216;-89
2023/10/10 07:34:39;;;;;;;31.90;23.07;;;;;;;;;;4978023;28;20224;-88
2023/10/10 07:37:09;;;;;;;32.33;28.83;;;;;;;;;;4977094;28;20251;-89
2023/10/10 07:39:55;;;;;;;33.77;26.00;;;;;;;;;;4977671;28;20318;-89
2023/10/10 07:42:31;;;;;;;43.70;24.23;;;;;;;;;;4977676;28;20203;-89
2023/10/10 07:45:02;;;;;;;35.87;23.10;;;;;;;;;;4977469;28;20211;-87
2023/10/10 07:48:31;;;;;;;28.67;21.87;;;;;;;;;;4977487;28;20212;-89
2023/10/10 07:50:26;;;;;;;26.20;20.17;;;;;;;;;;4977705;28;20261;-89
2023/10/10 07:52:55;;;;;;;18.97;13.80;;;;;;;;;;4977911;28;20195;-89
2023/10/10 07:55:25;;;;;;;39.53;19.70;;;;;;;;;;4978050;28;20194;-88
2023/10/10 07:58:06;;;;;;;17.37;12.00;;;;;;;;;;4977528;28;20198;-88
2023/10/10 08:00:39;;;;;;;27.07;20.90;;;;;;;;;;4978391;28;20208;-88
2023/10/10 08:03:12;;;;;;;17.27;13.80;;;;;;;;;;4978286;28;20204;-89
2023/10/10 08:05:42;;;;;;;28.17;19.47;;;;;;;;;;4977781;28;20199;-89
2023/10/10 08:08:13;;;;;;;24.60;15.73;;;;;;;;;;4977624;28;20264;-90
2023/10/10 08:10:44;;;;;;;21.63;15.17;;;;;;;;;;4978223;28;20236;-89
2023/10/10 08:13:14;;;;;;;9.93;5.67;;;;;;;;;;4978573;28;20325;-89
2023/10/10 08:15:56;;;;;;;16.47;13.37;;;;;;;;;;4978225;28;20197;-89
2023/10/10 08:21:24;;;;;;;13.90;9.83;;;;;;;;;;5132923;27;20546;-88
2023/10/10 08:23:58;;;;;;;23.03;11.97;;;;;;;;;;5131868;28;20187;-89
2023/10/10 08:26:29;;;;;;;16.97;13.20;;;;;;;;;;5131793;28;20278;-88
2023/10/10 08:28:58;;;;;;;13.83;8.03;;;;;;;;;;5132276;28;20261;-88
2023/10/10 08:31:27;;;;;;;20.37;13.07;;;;;;;;;;5132819;28;20203;-88
2023/10/10 08:33:58;;;;;;;6.10;4.27;;;;;;;;;;5132522;28;20202;-88
2023/10/10 08:36:30;;;;;;;27.27;18.73;;;;;;;;;;5133134;28;20195;-88
2023/10/10 08:39:25;;;;;;;17.83;11.73;;;;;;;;;;5130607;28;20211;-89
2023/10/10 08:41:58;;;;;;;29.90;21.93;;;;;;;;;;5132877;28;20235;-91
2023/10/10 08:44:30;;;;;;;27.73;20.07;;;;;;;;;;5132288;28;20215;-88
2023/10/10 08:47:00;;;;;;;21.53;13.37;;;;;;;;;;5131396;28;20199;-88
2023/10/10 08:49:30;;;;;;;15.83;10.87;;;;;;;;;;5131334;28;20219;-88
2023/10/10 08:52:03;;;;;;;22.47;14.60;;;;;;;;;;5131897;28;20203;-88
2023/10/10 08:54:32;;;;;;;26.27;20.83;;;;;;;;;;5131712;28;20261;-88
2023/10/10 08:57:03;;;;;;;24.23;16.40;;;;;;;;;;5131162;28;20211;-88
2023/10/10 08:59:35;;;;;;;32.30;18.30;;;;;;;;;;5131845;28;20288;-87
2023/10/10 09:02:16;;;;;;;10.73;7.93;;;;;;;;;;5131246;28;20361;-88
2023/10/10 09:04:50;;;;;;;26.17;17.77;;;;;;;;;;5130639;28;20195;-88
2023/10/10 09:07:27;;;;;;;25.93;21.70;;;;;;;;;;5131386;28;20261;-87
2023/10/10 09:10:05;;;;;;;35.30;23.23;;;;;;;;;;5130992;28;20211;-88
2023/10/10 09:12:36;;;;;;;22.43;13.27;;;;;;;;;;5131227;28;20204;-88
2023/10/10 09:15:16;;;;;;;10.00;6.60;;;;;;;;;;5131233;28;20291;-88
2023/10/10 09:17:48;;;;;;;13.73;9.93;;;;;;;;;;5131552;28;20189;-89
2023/10/10 09:20:28;;;;;;;31.73;21.27;;;;;;;;;;5131662;28;20236;-89
2023/10/10 09:23:04;;;;;;;26.27;16.90;;;;;;;;;;5131277;27;20196;-88
2023/10/10 09:25:42;;;;;;;31.23;19.50;;;;;;;;;;5130621;27;20200;-88
2023/10/10 09:28:15;;;;;;;37.80;19.00;;;;;;;;;;5131069;27;20228;-89
2023/10/10 09:30:58;;;;;;;12.47;9.97;;;;;;;;;;5128364;27;20234;-88
2023/10/10 09:33:29;;;;;;;18.70;12.90;;;;;;;;;;5116225;28;20221;-88
2023/10/10 09:36:08;;;;;;;29.63;18.63;;;;;;;;;;5116927;28;20209;-88
2023/10/10 09:38:45;;;;;;;8.73;6.23;;;;;;;;;;5117299;27;20200;-89
2023/10/10 09:41:37;;;;;;;20.87;15.30;;;;;;;;;;5117019;28;20213;-88
2023/10/10 09:44:53;;;;;;;27.93;17.37;;;;;;;;;;5116730;28;20193;-88
2023/10/10 09:47:40;;;;;;;27.90;17.50;;;;;;;;;;5117266;28;20209;-88
2023/10/10 09:52:59;;;;;;;25.47;14.87;;;;;;;;;;5112483;28;20216;-88
2023/10/10 09:55:39;;;;;;;33.10;21.33;;;;;;;;;;5117691;28;20237;-88
2023/10/10 09:58:24;;;;;;;21.73;15.77;;;;;;;;;;5107410;28;20238;-87
2023/10/10 10:01:18;;;;;;;22.17;11.73;;;;;;;;;;5095875;28;20218;-89
2023/10/10 10:03:55;;;;;;;9.50;6.37;;;;;;;;;;5113133;28;20199;-88
2023/10/10 10:07:12;;;;;;;23.43;13.80;;;;;;;;;;5106677;28;20240;-89
2023/10/10 10:09:51;;;;;;;12.53;8.10;;;;;;;;;;5104106;28;20200;-90
2023/10/10 10:12:41;;;;;;;30.10;15.57;;;;;;;;;;5108887;28;20534;-90
2023/10/10 10:15:22;;;;;;;16.17;10.27;;;;;;;;;;5104737;28;20302;-91
2023/10/10 10:17:56;;;;;;;13.13;8.10;;;;;;;;;;5100600;28;20266;-91
2023/10/10 10:24:15;;;;;;;13.67;10.00;;;;;;;;;;5101490;28;20254;-90
2023/10/10 10:27:11;;;;;;;15.90;10.77;;;;;;;;;;5111890;28;20212;-91
2023/10/10 10:29:42;;;;;;;16.77;9.53;;;;;;;;;;5109380;28;20188;-90
2023/10/10 10:32:14;;;;;;;11.50;7.20;;;;;;;;;;5097953;28;20241;-91
2023/10/10 10:34:45;;;;;;;9.77;6.47;;;;;;;;;;5115638;28;20271;-91
2023/10/10 10:37:23;;;;;;;8.73;5.73;;;;;;;;;;5109605;28;20220;-92
2023/10/10 10:40:42;;;;;;;3.23;2.33;;;;;;;;;;5102582;28;20218;-92
2023/10/10 10:43:24;;;;;;;21.63;13.93;;;;;;;;;;5081577;28;20217;-92
2023/10/10 10:46:11;;;;;;;18.70;10.27;;;;;;;;;;5113964;28;20218;-91
2023/10/10 10:48:48;;;;;;;10.80;8.67;;;;;;;;;;5114432;28;20233;-91
2023/10/10 10:51:25;;;;;;;19.47;10.80;;;;;;;;;;5114788;28;20226;-91
2023/10/10 10:53:56;;;;;;;17.07;9.47;;;;;;;;;;5109215;28;20237;-92
2023/10/10 10:56:41;;;;;;;5.33;3.53;;;;;;;;;;5101043;28;20307;-92
2023/10/10 10:59:19;;;;;;;25.73;17.23;;;;;;;;;;5106603;28;20205;-92
2023/10/10 11:01:55;;;;;;;6.87;4.87;;;;;;;;;;5108398;28;20209;-92
2023/10/10 11:04:42;;;;;;;14.47;8.17;;;;;;;;;;5108479;28;20205;-93
2023/10/10 11:07:27;;;;;;;25.00;14.33;;;;;;;;;;5109686;28;20216;-92
2023/10/10 11:10:06;;;;;;;7.90;5.67;;;;;;;;;;5091784;28;20204;-90
2023/10/10 11:12:40;;;;;;;9.07;6.30;;;;;;;;;;5095083;28;20224;-90
2023/10/10 11:15:13;;;;;;;25.80;17.90;;;;;;;;;;5106735;28;20206;-90
2023/10/10 11:17:53;;;;;;;28.10;19.47;;;;;;;;;;5111741;28;20189;-90
2023/10/10 11:20:29;;;;;;;13.30;5.30;;;;;;;;;;5100323;28;20354;-91
2023/10/10 11:23:14;;;;;;;15.20;9.73;;;;;;;;;;5093993;28;20206;-91
2023/10/10 11:25:46;;;;;;;6.93;5.57;;;;;;;;;;5096474;28;20210;-92
2023/10/10 11:28:23;;;;;;;12.27;7.30;;;;;;;;;;5100901;28;20267;-91
2023/10/10 11:30:58;;;;;;;10.17;7.23;;;;;;;;;;5107365;28;20216;-91
2023/10/10 11:33:47;;;;;;;11.10;8.07;;;;;;;;;;5110224;28;20204;-92
2023/10/10 11:36:29;;;;;;;20.70;11.13;;;;;;;;;;5109634;28;20213;-91
2023/10/10 11:39:16;;;;;;;17.73;10.73;;;;;;;;;;5112446;28;20211;-91
2023/10/10 11:41:46;;;;;;;17.63;7.97;;;;;;;;;;5097639;28;20215;-91
2023/10/10 11:44:19;;;;;;;19.30;11.60;;;;;;;;;;5112904;28;20443;-92
2023/10/10 11:46:56;;;;;;;10.60;9.17;;;;;;;;;;5112393;28;20203;-92
2023/10/10 11:49:26;;;;;;;20.83;7.80;;;;;;;;;;5113170;28;20231;-92
2023/10/10 11:51:58;;;;;;;15.27;6.70;;;;;;;;;;5099161;28;20216;-91
2023/10/10 11:54:44;;;;;;;12.17;6.60;;;;;;;;;;5113139;27;20260;-93
2023/10/10 11:57:17;;;;;;;12.47;8.23;;;;;;;;;;5111068;28;20235;-92
2023/10/10 11:59:47;;;;;;;10.50;6.97;;;;;;;;;;5101911;28;20193;-91
2023/10/10 12:02:29;;;;;;;16.63;6.57;;;;;;;;;;5112178;28;20202;-90
2023/10/10 12:05:14;;;;;;;15.10;9.37;;;;;;;;;;5103485;28;20201;-91
2023/10/10 12:07:48;;;;;;;12.30;8.07;;;;;;;;;;5106948;28;20217;-90
2023/10/10 12:13:09;;;;;;;26.83;17.30;;;;;;;;;;5101819;28;20218;-91
2023/10/10 12:15:40;;;;;;;12.67;7.50;;;;;;;;;;5095286;28;20212;-89
2023/10/10 12:18:10;;;;;;;17.93;12.40;;;;;;;;;;5104861;28;20252;-90
2023/10/10 12:20:43;;;;;;;11.83;8.07;;;;;;;;;;5111341;28;20229;-91
2023/10/10 12:23:14;;;;;;;2.50;2.30;;;;;;;;;;5109463;28;20210;-90
2023/10/10 12:25:43;;;;;;;3.73;3.33;;;;;;;;;;5110432;28;20198;-91
2023/10/10 12:31:16;;;;;;;6.30;5.10;;;;;;;;;;5111974;28;20190;-91
2023/10/10 12:33:48;;;;;;;6.67;4.17;;;;;;;;;;5112263;28;20221;-91
2023/10/10 12:36:17;;;;;;;5.43;2.03;;;;;;;;;;5109043;28;20213;-91
2023/10/10 12:38:48;;;;;;;5.33;3.93;;;;;;;;;;5103507;28;20236;-91
2023/10/10 12:41:20;;;;;;;7.70;5.20;;;;;;;;;;5104729;28;20207;-90
2023/10/10 12:43:50;;;;;;;8.50;5.67;;;;;;;;;;5093525;28;20217;-90
2023/10/10 12:46:20;;;;;;;6.33;5.13;;;;;;;;;;5101066;28;20296;-91
2023/10/10 12:48:51;;;;;;;9.83;5.27;;;;;;;;;;5112507;28;20213;-92
2023/10/10 12:51:25;;;;;;;3.43;2.63;;;;;;;;;;5111297;28;20284;-90
2023/10/10 12:54:00;;;;;;;11.23;5.93;;;;;;;;;;5110764;28;20253;-90
2023/10/10 12:56:38;;;;;;;10.97;6.20;;;;;;;;;;5111480;28;20209;-89
2023/10/10 12:59:07;;;;;;;6.37;3.63;;;;;;;;;;5098210;28;20194;-88
2023/10/10 13:01:56;;;;;;;11.47;6.23;;;;;;;;;;5099478;28;20199;-88
2023/10/10 13:04:29;;;;;;;12.37;3.63;;;;;;;;;;5111400;28;20210;-89
2023/10/10 13:07:03;;;;;;;7.00;4.07;;;;;;;;;;5113430;28;20205;-89
2023/10/10 13:09:42;;;;;;;3.73;3.03;;;;;;;;;;5115334;28;20223;-88
2023/10/10 13:12:18;;;;;;;4.50;1.90;;;;;;;;;;5114101;28;20219;-86
2023/10/10 13:14:50;;;;;;;10.07;4.03;;;;;;;;;;5112859;28;20203;-86
2023/10/10 13:17:31;;;;;;;2.83;2.50;;;;;;;;;;5105973;27;20239;-86
2023/10/10 13:20:00;;;;;;;6.47;3.17;;;;;;;;;;5100993;28;20243;-85
2023/10/10 13:22:30;;;;;;;7.43;2.70;;;;;;;;;;5094326;28;20211;-85
2023/10/10 13:25:00;;;;;;;7.77;4.30;;;;;;;;;;5102163;28;20216;-85
2023/10/10 13:27:29;;;;;;;4.77;2.90;;;;;;;;;;5101099;28;20252;-85
2023/10/10 13:29:58;;;;;;;1.80;1.50;;;;;;;;;;5097689;28;20203;-86
2023/10/10 13:32:26;;;;;;;2.27;1.77;;;;;;;;;;5099094;28;20305;-86
2023/10/10 13:34:55;;;;;;;13.00;5.83;;;;;;;;;;5104062;28;20195;-84
2023/10/10 13:37:24;;;;;;;5.70;3.43;;;;;;;;;;5106230;28;20197;-84
2023/10/10 13:39:55;;;;;;;14.17;4.17;;;;;;;;;;5111554;28;20213;-85
2023/10/10 13:42:29;;;;;;;2.27;1.47;;;;;;;;;;5102274;28;20203;-84
2023/10/10 13:45:10;;;;;;;11.00;3.73;;;;;;;;;;5095545;28;20212;-86
2023/10/10 13:47:40;;;;;;;5.43;2.93;;;;;;;;;;5092604;28;20206;-84
2023/10/10 13:53:11;;;;;;;9.77;5.43;;;;;;;;;;5026459;28;20405;-85
2023/10/10 13:55:42;;;;;;;13.77;5.63;;;;;;;;;;5079020;28;20297;-86
2023/10/10 13:58:20;;;;;;;15.67;4.90;;;;;;;;;;5094416;28;20270;-87
2023/10/10 14:00:55;;;;;;;14.60;4.93;;;;;;;;;;5093350;28;20204;-84
2023/10/10 14:03:29;;;;;;;4.10;3.30;;;;;;;;;;5099109;28;20203;-85
2023/10/10 14:06:03;;;;;;;11.17;4.43;;;;;;;;;;5099250;28;20204;-84
2023/10/10 14:08:32;;;;;;;8.60;4.97;;;;;;;;;;5094527;28;20212;-86
2023/10/10 14:11:02;;;;;;;6.97;4.27;;;;;;;;;;5096743;28;20300;-86
2023/10/10 14:13:34;;;;;;;4.63;3.20;;;;;;;;;;5095773;28;20221;-85
2023/10/10 14:16:06;;;;;;;3.97;2.43;;;;;;;;;;5094288;28;20225;-86
2023/10/10 14:18:43;;;;;;;6.40;3.27;;;;;;;;;;5100167;28;20225;-86
2023/10/10 14:21:14;;;;;;;4.00;1.43;;;;;;;;;;5103003;28;20221;-85
2023/10/10 14:23:46;;;;;;;3.63;2.90;;;;;;;;;;5100702;28;20214;-85
2023/10/10 14:26:17;;;;;;;9.13;6.33;;;;;;;;;;5091430;28;20274;-87
2023/10/10 14:28:51;;;;;;;7.10;3.57;;;;;;;;;;5093962;28;20212;-86
2023/10/10 14:31:21;;;;;;;8.40;4.90;;;;;;;;;;5094821;28;20214;-86
2023/10/10 14:33:51;;;;;;;4.03;2.53;;;;;;;;;;5095706;28;20244;-86
2023/10/10 14:36:19;;;;;;;7.63;3.53;;;;;;;;;;5094917;28;20263;-85
2023/10/10 14:38:50;;;;;;;2.07;1.73;;;;;;;;;;5096865;28;20209;-85
2023/10/10 14:41:20;;;;;;;7.10;6.17;;;;;;;;;;5095917;28;20195;-85
2023/10/10 14:43:51;;;;;;;5.20;3.27;;;;;;;;;;5095548;28;20271;-85
2023/10/10 14:46:22;;;;;;;7.13;4.37;;;;;;;;;;5090997;28;20263;-86
2023/10/10 14:48:51;;;;;;;5.63;4.70;;;;;;;;;;5094260;28;20212;-86
2023/10/10 14:51:25;;;;;;;10.33;4.57;;;;;;;;;;5094466;28;20233;-86
2023/10/10 14:53:56;;;;;;;10.10;4.87;;;;;;;;;;5102102;28;20322;-85
2023/10/10 14:56:34;;;;;;;12.40;6.40;;;;;;;;;;5100504;28;20233;-85
2023/10/10 14:59:06;;;;;;;6.67;3.67;;;;;;;;;;5097894;28;20203;-85
2023/10/10 15:01:36;;;;;;;6.03;4.93;;;;;;;;;;5096647;28;20202;-84
2023/10/10 15:04:04;;;;;;;7.50;3.57;;;;;;;;;;5105350;28;20201;-85
2023/10/10 15:06:34;;;;;;;5.87;4.30;;;;;;;;;;5093247;28;20201;-86
2023/10/10 15:09:03;;;;;;;10.80;4.50;;;;;;;;;;5100564;28;20185;-85
2023/10/10 15:11:32;;;;;;;13.90;4.47;;;;;;;;;;5098528;28;20212;-85
2023/10/10 15:14:06;;;;;;;2.67;2.20;;;;;;;;;;5097849;28;20218;-85
2023/10/10 15:16:36;;;;;;;6.07;3.43;;;;;;;;;;5098063;28;20471;-85
2023/10/10 15:19:06;;;;;;;7.03;4.10;;;;;;;;;;5098607;28;20224;-87
2023/10/10 15:21:35;;;;;;;6.30;4.87;;;;;;;;;;5094696;28;20233;-86
2023/10/10 15:24:08;;;;;;;5.40;4.07;;;;;;;;;;5096596;28;20197;-86
2023/10/10 15:26:37;;;;;;;4.33;2.93;;;;;;;;;;5093157;28;20194;-86
2023/10/10 15:29:10;;;;;;;3.57;1.97;;;;;;;;;;5097219;28;20227;-87
2023/10/10 15:31:41;;;;;;;3.27;1.97;;;;;;;;;;5095278;28;20210;-84
2023/10/10 15:34:10;;;;;;;2.87;1.87;;;;;;;;;;5093853;28;20229;-85
2023/10/10 15:36:43;;;;;;;4.07;2.43;;;;;;;;;;5093282;28;20212;-86
2023/10/10 15:39:12;;;;;;;4.77;2.90;;;;;;;;;;5099058;28;20220;-87
2023/10/10 15:41:42;;;;;;;2.77;1.97;;;;;;;;;;5092955;28;20215;-85
2023/10/10 15:44:15;;;;;;;5.13;2.87;;;;;;;;;;5101131;28;20205;-86
2023/10/10 15:46:45;;;;;;;2.93;2.50;;;;;;;;;;5098977;28;20215;-85
2023/10/10 15:49:14;;;;;;;5.40;2.83;;;;;;;;;;5102896;28;20212;-86
2023/10/10 15:51:45;;;;;;;5.47;3.73;;;;;;;;;;5091822;28;20196;-87
2023/10/10 15:54:16;;;;;;;1.93;1.63;;;;;;;;;;5097374;28;20235;-86
2023/10/10 15:56:46;;;;;;;4.13;2.60;;;;;;;;;;5095544;28;20195;-86
2023/10/10 15:59:15;;;;;;;2.83;1.87;;;;;;;;;;5093145;28;20274;-86
2023/10/10 16:01:48;;;;;;;7.40;2.07;;;;;;;;;;5094973;28;20203;-88
2023/10/10 16:04:19;;;;;;;7.53;3.47;;;;;;;;;;5094374;28;20204;-86
2023/10/10 16:06:50;;;;;;;5.90;1.57;;;;;;;;;;5091395;28;20205;-85
2023/10/10 16:09:29;;;;;;;3.70;2.37;;;;;;;;;;5096350;28;20256;-85
2023/10/10 16:11:58;;;;;;;6.57;2.97;;;;;;;;;;5093680;28;20408;-86
2023/10/10 16:14:27;;;;;;;5.80;3.20;;;;;;;;;;5096151;28;20216;-88
2023/10/10 16:17:02;;;;;;;4.60;3.93;;;;;;;;;;5097474;28;20204;-87
2023/10/10 16:19:32;;;;;;;6.00;3.37;;;;;;;;;;5103253;28;20224;-86
2023/10/10 16:22:04;;;;;;;4.27;2.70;;;;;;;;;;5102742;28;20205;-86
2023/10/10 16:24:33;;;;;;;3.70;2.97;;;;;;;;;;5091358;28;20185;-87
2023/10/10 16:27:04;;;;;;;3.93;2.80;;;;;;;;;;5100164;28;20233;-87
2023/10/10 16:29:33;;;;;;;7.20;5.13;;;;;;;;;;5093930;28;20211;-86
2023/10/10 16:32:07;;;;;;;3.80;1.63;;;;;;;;;;5093155;28;20204;-86
2023/10/10 16:34:36;;;;;;;8.53;5.00;;;;;;;;;;5102690;28;20223;-85
2023/10/10 16:37:13;;;;;;;8.47;5.17;;;;;;;;;;5092640;28;20218;-85
2023/10/10 16:39:45;;;;;;;7.67;4.33;;;;;;;;;;5091339;28;20206;-86
2023/10/10 16:42:19;;;;;;;5.70;3.30;;;;;;;;;;5098894;28;20212;-86
2023/10/10 16:44:50;;;;;;;3.97;3.63;;;;;;;;;;5098582;28;20191;-87
2023/10/10 16:47:21;;;;;;;9.37;4.73;;;;;;;;;;5094932;28;20189;-86
2023/10/10 16:49:50;;;;;;;8.80;4.53;;;;;;;;;;5098563;28;20218;-85
2023/10/10 16:52:19;;;;;;;9.80;3.60;;;;;;;;;;5099235;28;20210;-87
2023/10/10 16:54:51;;;;;;;4.30;2.93;;;;;;;;;;5099251;28;20211;-86
2023/10/10 16:57:22;;;;;;;7.03;3.53;;;;;;;;;;5099198;28;20192;-86
2023/10/10 16:59:55;;;;;;;6.43;3.67;;;;;;;;;;5099960;28;20288;-87
2023/10/10 17:02:27;;;;;;;8.83;4.63;;;;;;;;;;5104615;28;20226;-87
2023/10/10 17:05:04;;;;;;;6.97;3.33;;;;;;;;;;5106837;28;20197;-86
2023/10/10 17:07:33;;;;;;;8.53;4.30;;;;;;;;;;5095536;28;20233;-86
2023/10/10 17:10:06;;;;;;;7.33;4.10;;;;;;;;;;5095388;28;20209;-86
2023/10/10 17:12:35;;;;;;;5.20;3.70;;;;;;;;;;5093336;28;20220;-86
2023/10/10 17:15:04;;;;;;;4.27;2.60;;;;;;;;;;5094666;28;20223;-87
2023/10/10 17:17:35;;;;;;;5.07;3.67;;;;;;;;;;5094933;28;20201;-86
2023/10/10 17:20:04;;;;;;;8.57;5.03;;;;;;;;;;5094483;28;20235;-87
2023/10/10 17:22:33;;;;;;;4.60;3.10;;;;;;;;;;5094810;28;20204;-87
2023/10/10 17:25:01;;;;;;;6.50;3.57;;;;;;;;;;5097854;28;20203;-86
2023/10/10 17:27:33;;;;;;;7.23;5.03;;;;;;;;;;5095975;28;20251;-87
2023/10/10 17:30:01;;;;;;;9.47;4.77;;;;;;;;;;5094751;28;20201;-87
2023/10/10 17:32:30;;;;;;;7.50;4.70;;;;;;;;;;5096359;28;20229;-87
2023/10/10 17:35:04;;;;;;;8.00;5.47;;;;;;;;;;5096630;28;20318;-87
2023/10/10 17:37:34;;;;;;;7.07;3.50;;;;;;;;;;5098302;28;20266;-87
2023/10/10 17:40:05;;;;;;;7.50;5.73;;;;;;;;;;5094783;28;20197;-87
2023/10/10 17:42:34;;;;;;;15.00;6.70;;;;;;;;;;5095052;28;20213;-87
2023/10/10 17:45:04;;;;;;;10.40;7.30;;;;;;;;;;5094966;28;20289;-87
2023/10/10 17:47:32;;;;;;;13.30;8.87;;;;;;;;;;5094614;28;20201;-87
2023/10/10 17:50:03;;;;;;;16.27;9.07;;;;;;;;;;5094134;28;20313;-87
2023/10/10 17:52:31;;;;;;;14.30;12.07;;;;;;;;;;5094605;28;20207;-87
2023/10/10 17:55:01;;;;;;;13.17;9.67;;;;;;;;;;5094675;28;20281;-86
2023/10/10 17:57:30;;;;;;;13.40;9.93;;;;;;;;;;5095120;28;20197;-86
2023/10/10 17:59:59;;;;;;;12.33;10.30;;;;;;;;;;5094416;28;20193;-87
2023/10/10 18:02:27;;;;;;;16.30;11.10;;;;;;;;;;5095076;28;20284;-86
2023/10/10 18:04:56;;;;;;;11.10;8.07;;;;;;;;;;5094919;28;20201;-87
2023/10/10 18:07:26;;;;;;;13.43;10.70;;;;;;;;;;5094394;28;20200;-86
2023/10/10 18:09:55;;;;;;;21.17;11.23;;;;;;;;;;5094123;28;20205;-86
2023/10/10 18:12:24;;;;;;;14.30;10.67;;;;;;;;;;5094623;28;20214;-87